New York, Iowa
Current Conditions -  °F | °C
As of 3:55 PM on Tuesday 25 Nov 2014 (Local Time) from KCNC Reporting Station
Clear Clear  
Wind Chill: 30°   Ceiling: Unl
Heat Index: 36°   Visibility: 10mi
Dew Point: 12°   Wind: 7mph
Humidity: 38%   Direction: 190°S
Pressure: 30.07"   Gusts: NA
Location:  40.9063°N, 93.1553°W
Report Text: KCNC 252155Z AUTO 19006KT 10SM CLR 02/M11 A3007 RMK AO2
Loading
Personal Weather Stations






























Interactive Weather Map New forecast layout! Learn more

10-Day Weather Forecast

Advertisements
Track Severe Weather on mobile